Cherry Valley

*Note: All times are displayed in the local standard time of the station location.
**Rain - Equipment is designed to accurately record liquid precipitation; under conditions when precipitation is not in liquid form, the data displayed may not properly reflect rainfall values.

Date Max Temp
(°C)
Min Temp
(°C)
Avg Temp
(°C)
Rain (mm) Avg RH (%)
Sat, Dec 16, 2017 -2.5 -13.9 -6.3 0.0 63.5
Fri, Dec 15, 2017 -2.7 -16.2 -6.7 0.0 83.6
Thu, Dec 14, 2017 -6.9 -19.3 -12.9 0.0 71.8
Wed, Dec 13, 2017 -9.1 -15.2 -12.5 0.0 74.0
Tue, Dec 12, 2017 -0.7 -9.0 -5.5 0.0 89.6
Mon, Dec 11, 2017 -1.1 -9.3 -5.7 0.0 69.9
Sun, Dec 10, 2017 0.2 -2.7 -1.3 0.0 74.9
DateTime Avg Temp (°C) Rain (mm) RH (%)
Sun, Dec 17, 2017 17:00 -10.8 0.0 77.5
Sun, Dec 17, 2017 16:00 -9.9 0.0 77.8
Sun, Dec 17, 2017 15:00 -8.7 0.0 66.0
Sun, Dec 17, 2017 14:00 -9.7 0.0 60.5
Sun, Dec 17, 2017 13:00 -9.5 0.0 56.5
Sun, Dec 17, 2017 12:00 -10.1 0.0 57.0
Sun, Dec 17, 2017 11:00 -11.9 0.0 61.0
Sun, Dec 17, 2017 10:00 -14.4 0.0 69.3
Sun, Dec 17, 2017 09:00 -16.9 0.0 79.8
Sun, Dec 17, 2017 08:00 -17.8 0.0 84.8
Sun, Dec 17, 2017 07:00 -17.3 0.0 85.0
Sun, Dec 17, 2017 06:00 -16.5 0.0 83.8
Sun, Dec 17, 2017 05:00 -16.0 0.0 83.3
Sun, Dec 17, 2017 04:00 -15.3 0.0 82.0
Sun, Dec 17, 2017 03:00 -14.6 0.0 79.5
Sun, Dec 17, 2017 02:00 -14.6 0.0 81.0
Sun, Dec 17, 2017 01:00 -14.4 0.0 82.3
Sun, Dec 17, 2017 00:00 -13.7 0.0 79.3
Sat, Dec 16, 2017 23:00 -13.1 0.0 77.0
Sat, Dec 16, 2017 22:00 -12.3 0.0 73.0
Sat, Dec 16, 2017 21:00 -11.6 0.0 69.5
Sat, Dec 16, 2017 20:00 -10.7 0.0 66.3
Sat, Dec 16, 2017 19:00 -9.0 0.0 59.5
Sat, Dec 16, 2017 18:00 -8.3 0.0 55.5
Sat, Dec 16, 2017 17:00 -7.0 0.0 49.0
Sat, Dec 16, 2017 16:00 -5.1 0.0 40.5
Sat, Dec 16, 2017 15:00 -4.2 0.0 40.0
Sat, Dec 16, 2017 14:00 -4.1 0.0 39.0
Sat, Dec 16, 2017 13:00 -3.9 0.0 38.8
Sat, Dec 16, 2017 12:00 -4.4 0.0 45.8
Sat, Dec 16, 2017 11:00 -5.1 0.0 56.8
Sat, Dec 16, 2017 10:00 -5.7 0.0 65.5
Sat, Dec 16, 2017 09:00 -5.9 0.0 69.8
Sat, Dec 16, 2017 08:00 -5.7 0.0 75.3
Sat, Dec 16, 2017 07:00 -4.7 0.0 73.8
Sat, Dec 16, 2017 06:00 -3.5 0.0 70.8
Sat, Dec 16, 2017 05:00 -3.1 0.0 72.5
Sat, Dec 16, 2017 04:00 -3.1 0.0 73.8
Sat, Dec 16, 2017 03:00 -2.9 0.0 76.5
Sat, Dec 16, 2017 02:00 -3.1 0.0 79.3
Sat, Dec 16, 2017 01:00 -2.6 0.0 77.5
Sat, Dec 16, 2017 00:00 -2.9 0.0 78.3
Fri, Dec 15, 2017 23:00 -3.7 0.0 82.3
Fri, Dec 15, 2017 22:00 -3.4 0.0 92.3
Fri, Dec 15, 2017 21:00 -3.0 0.0 84.3
Fri, Dec 15, 2017 20:00 -3.6 0.0 90.5
Fri, Dec 15, 2017 19:00 -3.9 0.0 87.0
Fri, Dec 15, 2017 18:00 -4.2 0.0 87.3


asterix Register now to access more data! asterix